Time;durP1;ratioP1;P1;durP2;ratioP2;P2;SDS_P1;SDS_P2;PMS_P1;PMS_P2;Temp;Humidity;BMP_temperature;BMP_pressure;BME280_temperature;BME280_humidity;BME280_pressure;Samples;Min_cycle;Max_cycle;Signal;HPM_P1;HPM_P2
2023/07/14 00:00:23;;;;;;;;;;;;;;;;;;5026860;28;4617;-59
2023/07/14 00:02:50;;;;;;;;;;;;;;;;;;5027875;28;4525;-59
2023/07/14 00:05:17;;;;;;;;;;;;;;;;;;5027464;28;4472;-59
2023/07/14 00:07:43;;;;;;;;;;;;;;;;;;5027916;28;5050;-59
2023/07/14 00:10:19;;;;;;;;;;;;;;;;;;5027638;28;5027;-59
2023/07/14 00:12:44;;;;;;;;;;;;;;;;;;5027734;28;1119;-59
2023/07/14 00:15:09;;;;;;;;;;;;;;;;;;5025067;28;5003;-60
2023/07/14 00:17:35;;;;;;;;;;;;;;;;;;5027693;28;4489;-60
2023/07/14 00:20:00;;;;;;;;;;;;;;;;;;5025959;28;5101;-59
2023/07/14 00:22:25;;;;;;;;;;;;;;;;;;5023656;28;5213;-60
2023/07/14 00:24:50;;;;;;;;;;;;;;;;;;5027689;28;1151;-60
2023/07/14 00:27:17;;;;;;;;;;;;;;;;;;5021905;28;4861;-59
2023/07/14 00:29:43;;;;;;;;;;;;;;;;;;5014870;28;4486;-59
2023/07/14 00:32:18;;;;;;;;;;;;;;;;;;5027441;28;4641;-59
2023/07/14 00:34:43;;;;;;;;;;;;;;;;;;5027393;28;5006;-60
2023/07/14 00:37:08;;;;;;;;;;;;;;;;;;5027012;28;4963;-59
2023/07/14 00:39:34;;;;;;;;;;;;;;;;;;5026055;28;1942;-60
2023/07/14 00:41:59;;;;;;;;;;;;;;;;;;5025997;28;5160;-60
2023/07/14 00:44:25;;;;;;;;;;;;;;;;;;5025173;28;4989;-59
2023/07/14 00:46:50;;;;;;;;;;;;;;;;;;5030948;28;4629;-59
2023/07/14 00:49:35;;;;;;;;;;;;;;;;;;5029873;28;5205;-60
2023/07/14 00:52:12;;;;;;;;;;;;;;;;;;5027040;28;1864;-60
2023/07/14 00:54:38;;;;;;;;;;;;;;;;;;5029288;28;4951;-60
2023/07/14 00:57:03;;;;;;;;;;;;;;;;;;5030884;28;5116;-59
2023/07/14 00:59:30;;;;;;;;;;;;;;;;;;5030650;28;4976;-60
2023/07/14 01:02:24;;;;;;;;;;;;;;;;;;5028854;28;5073;-60
2023/07/14 01:04:54;;;;;;;;;;;;;;;;;;5015669;28;4482;-60
2023/07/14 01:07:23;;;;;;;;;;;;;;;;;;5027974;28;5096;-60
2023/07/14 01:09:48;;;;;;;;;;;;;;;;;;5026302;28;1663;-60
2023/07/14 01:12:15;;;;;;;;;;;;;;;;;;5028097;28;5283;-60
2023/07/14 01:14:42;;;;;;;;;;;;;;;;;;5005954;28;4531;-60
2023/07/14 01:17:07;;;;;;;;;;;;;;;;;;5017846;28;5116;-60
2023/07/14 01:19:44;;;;;;;;;;;;;;;;;;5020460;28;5127;-59
2023/07/14 01:22:29;;;;;;;;;;;;;;;;;;5029765;28;5031;-59
2023/07/14 01:24:55;;;;;;;;;;;;;;;;;;4980066;28;1250;-60
2023/07/14 01:27:21;;;;;;;;;;;;;;;;;;5021196;28;4977;-59
2023/07/14 01:29:46;;;;;;;;;;;;;;;;;;5030294;28;4613;-59
2023/07/14 01:32:18;;;;;;;;;;;;;;;;;;5030560;28;4583;-60
2023/07/14 01:34:44;;;;;;;;;;;;;;;;;;5028520;28;5056;-60
2023/07/14 01:37:09;;;;;;;;;;;;;;;;;;5030219;28;5072;-60
2023/07/14 01:39:34;;;;;;;;;;;;;;;;;;5028986;28;1914;-60
2023/07/14 01:41:59;;;;;;;;;;;;;;;;;;5028229;28;4752;-60
2023/07/14 01:44:25;;;;;;;;;;;;;;;;;;5028108;28;4706;-60
2023/07/14 01:46:50;;;;;;;;;;;;;;;;;;5029333;28;5043;-60
2023/07/14 01:49:24;;;;;;;;;;;;;;;;;;5028707;28;4970;-59
2023/07/14 01:51:49;;;;;;;;;;;;;;;;;;5024449;28;1313;-60
2023/07/14 01:54:18;;;;;;;;;;;;;;;;;;5027305;28;4469;-59
2023/07/14 01:56:43;;;;;;;;;;;;;;;;;;5029436;28;4956;-60
2023/07/14 01:59:19;;;;;;;;;;;;;;;;;;5028005;28;5285;-59
2023/07/14 02:01:44;;;;;;;;;;;;;;;;;;5027361;28;4680;-59
2023/07/14 02:04:12;;;;;;;;;;;;;;;;;;5028886;28;4639;-59
2023/07/14 02:06:37;;;;;;;;;;;;;;;;;;5030123;28;1141;-60
2023/07/14 02:09:03;;;;;;;;;;;;;;;;;;5026310;28;5008;-60
2023/07/14 02:11:28;;;;;;;;;;;;;;;;;;5028770;28;5197;-60
2023/07/14 02:13:54;;;;;;;;;;;;;;;;;;5025813;28;4540;-59
2023/07/14 02:16:19;;;;;;;;;;;;;;;;;;5028161;28;5043;-60
2023/07/14 02:18:44;;;;;;;;;;;;;;;;;;5028085;28;1109;-59
2023/07/14 02:21:10;;;;;;;;;;;;;;;;;;5027568;28;4940;-60
2023/07/14 02:23:36;;;;;;;;;;;;;;;;;;5027511;28;4478;-59
2023/07/14 02:26:14;;;;;;;;;;;;;;;;;;5027844;28;4444;-60
2023/07/14 02:28:39;;;;;;;;;;;;;;;;;;5027710;28;4968;-60
2023/07/14 02:31:15;;;;;;;;;;;;;;;;;;5029485;28;1109;-60
2023/07/14 02:33:41;;;;;;;;;;;;;;;;;;5027689;28;4980;-58
2023/07/14 02:36:13;;;;;;;;;;;;;;;;;;5028818;28;5009;-60
2023/07/14 02:38:39;;;;;;;;;;;;;;;;;;5028465;28;5032;-60
2023/07/14 02:41:14;;;;;;;;;;;;;;;;;;5028905;28;4928;-60
2023/07/14 02:43:40;;;;;;;;;;;;;;;;;;5028467;28;4862;-59
2023/07/14 02:46:08;;;;;;;;;;;;;;;;;;5029521;28;1073;-60
2023/07/14 02:48:36;;;;;;;;;;;;;;;;;;5028751;28;6054;-60
2023/07/14 02:51:02;;;;;;;;;;;;;;;;;;5020730;28;5001;-60
2023/07/14 02:53:27;;;;;;;;;;;;;;;;;;5027941;28;4508;-59
2023/07/14 02:55:52;;;;;;;;;;;;;;;;;;5027272;28;5270;-60
2023/07/14 02:58:17;;;;;;;;;;;;;;;;;;5028339;28;4660;-59
2023/07/14 03:00:43;;;;;;;;;;;;;;;;;;5029049;28;1910;-59
2023/07/14 03:03:08;;;;;;;;;;;;;;;;;;5026240;28;5051;-59
2023/07/14 03:05:33;;;;;;;;;;;;;;;;;;5027760;28;5172;-60
2023/07/14 03:08:00;;;;;;;;;;;;;;;;;;5028188;28;4454;-60
2023/07/14 03:10:26;;;;;;;;;;;;;;;;;;5023429;28;5003;-60
2023/07/14 03:12:52;;;;;;;;;;;;;;;;;;5027796;28;1275;-60
2023/07/14 03:15:17;;;;;;;;;;;;;;;;;;5026421;28;4377;-59
2023/07/14 03:17:42;;;;;;;;;;;;;;;;;;5027856;28;4457;-59
2023/07/14 03:20:10;;;;;;;;;;;;;;;;;;5027951;28;5065;-60
2023/07/14 03:22:36;;;;;;;;;;;;;;;;;;5022915;28;5023;-59
2023/07/14 03:25:01;;;;;;;;;;;;;;;;;;5028592;28;1156;-60
2023/07/14 03:27:27;;;;;;;;;;;;;;;;;;5021837;28;5018;-60
2023/07/14 03:29:53;;;;;;;;;;;;;;;;;;5026054;28;4899;-60
2023/07/14 03:32:18;;;;;;;;;;;;;;;;;;5027905;28;5105;-60
2023/07/14 03:34:43;;;;;;;;;;;;;;;;;;5027852;28;6082;-59
2023/07/14 03:37:09;;;;;;;;;;;;;;;;;;5027809;28;4822;-59
2023/07/14 03:39:34;;;;;;;;;;;;;;;;;;5028721;28;1148;-60
2023/07/14 03:42:00;;;;;;;;;;;;;;;;;;5027780;28;4552;-60
2023/07/14 03:44:25;;;;;;;;;;;;;;;;;;5026980;28;5033;-60
2023/07/14 03:46:50;;;;;;;;;;;;;;;;;;5027556;28;4837;-59
2023/07/14 03:49:16;;;;;;;;;;;;;;;;;;5023608;28;4461;-60
2023/07/14 03:51:41;;;;;;;;;;;;;;;;;;5028291;28;1258;-60
2023/07/14 03:54:07;;;;;;;;;;;;;;;;;;5027347;28;5074;-59
2023/07/14 03:56:32;;;;;;;;;;;;;;;;;;5027416;28;5032;-60
2023/07/14 03:58:57;;;;;;;;;;;;;;;;;;5026281;28;5182;-60
2023/07/14 04:01:23;;;;;;;;;;;;;;;;;;5020881;28;4538;-60
2023/07/14 04:03:48;;;;;;;;;;;;;;;;;;5028158;28;1144;-60
2023/07/14 04:06:13;;;;;;;;;;;;;;;;;;5026449;28;5120;-59
2023/07/14 04:08:39;;;;;;;;;;;;;;;;;;5019362;28;5041;-60
2023/07/14 04:11:04;;;;;;;;;;;;;;;;;;5024670;28;5113;-60
2023/07/14 04:13:30;;;;;;;;;;;;;;;;;;5027371;28;4984;-60
2023/07/14 04:15:56;;;;;;;;;;;;;;;;;;5024500;28;1733;-60
2023/07/14 04:18:21;;;;;;;;;;;;;;;;;;5031293;28;4612;-59
2023/07/14 04:20:46;;;;;;;;;;;;;;;;;;5031152;28;4882;-58
2023/07/14 04:23:12;;;;;;;;;;;;;;;;;;5030881;28;5213;-60
2023/07/14 04:25:37;;;;;;;;;;;;;;;;;;5029482;28;5006;-60
2023/07/14 04:28:02;;;;;;;;;;;;;;;;;;5030056;28;1331;-60
2023/07/14 04:30:27;;;;;;;;;;;;;;;;;;5028776;28;4770;-60
2023/07/14 04:32:54;;;;;;;;;;;;;;;;;;5012446;28;5288;-59
2023/07/14 04:35:19;;;;;;;;;;;;;;;;;;5030290;28;4603;-59
2023/07/14 04:37:44;;;;;;;;;;;;;;;;;;5030868;28;5102;-60
2023/07/14 04:40:10;;;;;;;;;;;;;;;;;;5030593;28;4691;-59
2023/07/14 04:42:35;;;;;;;;;;;;;;;;;;5032003;28;1316;-59
2023/07/14 04:45:01;;;;;;;;;;;;;;;;;;5030262;28;4829;-60
2023/07/14 04:47:26;;;;;;;;;;;;;;;;;;5044995;28;5033;-59
2023/07/14 04:49:51;;;;;;;;;;;;;;;;;;5030211;28;4784;-60
2023/07/14 04:52:17;;;;;;;;;;;;;;;;;;5027606;28;5050;-59
2023/07/14 04:54:42;;;;;;;;;;;;;;;;;;5029756;28;1115;-59
2023/07/14 04:57:07;;;;;;;;;;;;;;;;;;5030673;28;4938;-59
2023/07/14 04:59:34;;;;;;;;;;;;;;;;;;5030623;28;4631;-60
2023/07/14 05:01:59;;;;;;;;;;;;;;;;;;5028490;28;5175;-60
2023/07/14 05:04:26;;;;;;;;;;;;;;;;;;5021315;28;4564;-60
2023/07/14 05:06:51;;;;;;;;;;;;;;;;;;5025519;28;1323;-60
2023/07/14 05:09:16;;;;;;;;;;;;;;;;;;5028974;28;5050;-59
2023/07/14 05:11:42;;;;;;;;;;;;;;;;;;5026414;28;5014;-60
2023/07/14 05:14:07;;;;;;;;;;;;;;;;;;5027961;28;5004;-60
2023/07/14 05:16:32;;;;;;;;;;;;;;;;;;5029428;28;4639;-60
2023/07/14 05:18:57;;;;;;;;;;;;;;;;;;5030496;28;1465;-60
2023/07/14 05:21:23;;;;;;;;;;;;;;;;;;5029704;28;5328;-60
2023/07/14 05:23:48;;;;;;;;;;;;;;;;;;5029724;28;5070;-59
2023/07/14 05:26:13;;;;;;;;;;;;;;;;;;5010655;28;5284;-60
2023/07/14 05:28:38;;;;;;;;;;;;;;;;;;5028196;28;5230;-60
2023/07/14 05:31:04;;;;;;;;;;;;;;;;;;5029858;28;1347;-60
2023/07/14 05:33:30;;;;;;;;;;;;;;;;;;5021878;28;4383;-59
2023/07/14 05:35:55;;;;;;;;;;;;;;;;;;5025311;28;4486;-59
2023/07/14 05:38:20;;;;;;;;;;;;;;;;;;5029554;28;5108;-58
2023/07/14 05:40:53;;;;;;;;;;;;;;;;;;5023893;28;4681;-59
2023/07/14 05:43:18;;;;;;;;;;;;;;;;;;5017593;28;4524;-57
2023/07/14 05:45:47;;;;;;;;;;;;;;;;;;5022231;28;3293;-58
2023/07/14 05:48:14;;;;;;;;;;;;;;;;;;5022301;28;4916;-59
2023/07/14 05:50:39;;;;;;;;;;;;;;;;;;5020602;28;4825;-58
2023/07/14 05:53:05;;;;;;;;;;;;;;;;;;5020704;28;5082;-57
2023/07/14 05:55:30;;;;;;;;;;;;;;;;;;5025499;28;5088;-57
2023/07/14 05:57:56;;;;;;;;;;;;;;;;;;5028403;28;1131;-57
2023/07/14 06:00:21;;;;;;;;;;;;;;;;;;5025976;28;5101;-58
2023/07/14 06:02:46;;;;;;;;;;;;;;;;;;5027027;28;4611;-58
2023/07/14 06:05:12;;;;;;;;;;;;;;;;;;5024581;28;5114;-58
2023/07/14 06:07:37;;;;;;;;;;;;;;;;;;5026525;28;4470;-59
2023/07/14 06:10:03;;;;;;;;;;;;;;;;;;5028180;28;1393;-58
2023/07/14 06:12:29;;;;;;;;;;;;;;;;;;5029037;28;4628;-58
2023/07/14 06:14:54;;;;;;;;;;;;;;;;;;5024555;28;5013;-59
2023/07/14 06:17:19;;;;;;;;;;;;;;;;;;5029516;28;4958;-58
2023/07/14 06:19:44;;;;;;;;;;;;;;;;;;5027611;28;4470;-58
2023/07/14 06:22:09;;;;;;;;;;;;;;;;;;5029327;28;5078;-58
2023/07/14 06:24:35;;;;;;;;;;;;;;;;;;5026145;28;1376;-58
2023/07/14 06:27:01;;;;;;;;;;;;;;;;;;5029304;28;4873;-59
2023/07/14 06:29:26;;;;;;;;;;;;;;;;;;5028996;28;4508;-59
2023/07/14 06:31:51;;;;;;;;;;;;;;;;;;5028957;28;4469;-59
2023/07/14 06:34:16;;;;;;;;;;;;;;;;;;5028656;28;4617;-59
2023/07/14 06:36:42;;;;;;;;;;;;;;;;;;5029735;28;1349;-59
2023/07/14 06:39:07;;;;;;;;;;;;;;;;;;5010892;28;4624;-58
2023/07/14 06:41:32;;;;;;;;;;;;;;;;;;5020437;28;5084;-58
2023/07/14 06:43:58;;;;;;;;;;;;;;;;;;5028778;28;5260;-58
2023/07/14 06:46:24;;;;;;;;;;;;;;;;;;5025580;28;5082;-58
2023/07/14 06:48:49;;;;;;;;;;;;;;;;;;5029031;28;1120;-58
2023/07/14 06:51:14;;;;;;;;;;;;;;;;;;5028702;28;5489;-58
2023/07/14 06:53:40;;;;;;;;;;;;;;;;;;5025214;28;5141;-58
2023/07/14 06:56:05;;;;;;;;;;;;;;;;;;5028116;28;5048;-59
2023/07/14 06:58:31;;;;;;;;;;;;;;;;;;5028549;28;4524;-58
2023/07/14 07:00:56;;;;;;;;;;;;;;;;;;5023954;28;2271;-58
2023/07/14 07:03:21;;;;;;;;;;;;;;;;;;5027892;28;5005;-59
2023/07/14 07:05:46;;;;;;;;;;;;;;;;;;5028396;28;5146;-59
2023/07/14 07:08:12;;;;;;;;;;;;;;;;;;5028056;28;4501;-59
2023/07/14 07:10:37;;;;;;;;;;;;;;;;;;5027415;28;5193;-59
2023/07/14 07:13:03;;;;;;;;;;;;;;;;;;5027100;28;1333;-59
2023/07/14 07:15:28;;;;;;;;;;;;;;;;;;5023671;28;5008;-58
2023/07/14 07:17:53;;;;;;;;;;;;;;;;;;5028242;28;4902;-59
2023/07/14 07:20:19;;;;;;;;;;;;;;;;;;5020917;28;4875;-59
2023/07/14 07:22:44;;;;;;;;;;;;;;;;;;5034630;28;4996;-58
2023/07/14 07:25:09;;;;;;;;;;;;;;;;;;5022969;28;5117;-58
2023/07/14 07:27:35;;;;;;;;;;;;;;;;;;5025634;28;1378;-58
2023/07/14 07:30:03;;;;;;;;;;;;;;;;;;5026774;28;5125;-59
2023/07/14 07:32:28;;;;;;;;;;;;;;;;;;5027752;28;5164;-58
2023/07/14 07:34:59;;;;;;;;;;;;;;;;;;5026533;28;5992;-58
2023/07/14 07:37:24;;;;;;;;;;;;;;;;;;5020516;28;4494;-58
2023/07/14 07:39:53;;;;;;;;;;;;;;;;;;5007753;28;1914;-59
2023/07/14 07:42:18;;;;;;;;;;;;;;;;;;5026183;28;4655;-59
2023/07/14 07:44:43;;;;;;;;;;;;;;;;;;5027452;28;4516;-59
2023/07/14 07:47:09;;;;;;;;;;;;;;;;;;5027012;28;4637;-59
2023/07/14 07:49:34;;;;;;;;;;;;;;;;;;5022365;28;4646;-59
2023/07/14 07:51:59;;;;;;;;;;;;;;;;;;5022575;28;2767;-58
2023/07/14 07:54:24;;;;;;;;;;;;;;;;;;5025792;28;4600;-58
2023/07/14 07:56:50;;;;;;;;;;;;;;;;;;5025963;28;4963;-59
2023/07/14 07:59:15;;;;;;;;;;;;;;;;;;5027216;28;5071;-57
2023/07/14 08:01:42;;;;;;;;;;;;;;;;;;5027251;28;4597;-57
2023/07/14 08:04:07;;;;;;;;;;;;;;;;;;5022254;28;5060;-57
2023/07/14 08:06:34;;;;;;;;;;;;;;;;;;5021712;28;1229;-59
2023/07/14 08:08:59;;;;;;;;;;;;;;;;;;5027324;28;4480;-59
2023/07/14 08:11:25;;;;;;;;;;;;;;;;;;5020525;28;5100;-59
2023/07/14 08:13:50;;;;;;;;;;;;;;;;;;5024677;28;4980;-58
2023/07/14 08:16:15;;;;;;;;;;;;;;;;;;5026774;28;4622;-58
2023/07/14 08:18:40;;;;;;;;;;;;;;;;;;5027832;28;1183;-58
2023/07/14 08:21:06;;;;;;;;;;;;;;;;;;5027024;28;5338;-59
2023/07/14 08:23:31;;;;;;;;;;;;;;;;;;5026272;28;5027;-53
2023/07/14 08:25:57;;;;;;;;;;;;;;;;;;5026322;28;5114;-55
2023/07/14 08:28:23;;;;;;;;;;;;;;;;;;5026818;28;4439;-56
2023/07/14 08:30:49;;;;;;;;;;;;;;;;;;5026465;28;3263;-55
2023/07/14 08:33:15;;;;;;;;;;;;;;;;;;5025700;28;4514;-54
2023/07/14 08:35:40;;;;;;;;;;;;;;;;;;5025101;28;5068;-55
2023/07/14 08:38:05;;;;;;;;;;;;;;;;;;5024040;28;5089;-54
2023/07/14 08:40:31;;;;;;;;;;;;;;;;;;5024501;28;5089;-55
2023/07/14 08:43:03;;;;;;;;;;;;;;;;;;5024330;28;1549;-54
2023/07/14 08:45:47;;;;;;;;;;;;;;;;;;5025213;28;4866;-54
2023/07/14 08:48:31;;;;;;;;;;;;;;;;;;5017031;28;4949;-53
2023/07/14 08:51:02;;;;;;;;;;;;;;;;;;5022041;28;5264;-55
2023/07/14 08:53:28;;;;;;;;;;;;;;;;;;5024980;28;5100;-54
2023/07/14 08:56:03;;;;;;;;;;;;;;;;;;5020705;28;5098;-55
2023/07/14 08:58:30;;;;;;;;;;;;;;;;;;5023101;28;5089;-56
2023/07/14 09:00:58;;;;;;;;;;;;;;;;;;5024867;28;2138;-55
2023/07/14 09:03:43;;;;;;;;;;;;;;;;;;5021951;28;4643;-56
2023/07/14 09:06:17;;;;;;;;;;;;;;;;;;5028264;28;5001;-54
2023/07/14 09:08:42;;;;;;;;;;;;;;;;;;5022473;28;5033;-55
2023/07/14 09:11:26;;;;;;;;;;;;;;;;;;5028045;28;4581;-55
2023/07/14 09:14:08;;;;;;;;;;;;;;;;;;5021871;28;4949;-56
2023/07/14 09:16:34;;;;;;;;;;;;;;;;;;5028736;28;4506;-56
2023/07/14 09:19:02;;;;;;;;;;;;;;;;;;5030127;28;1310;-56
2023/07/14 09:21:40;;;;;;;;;;;;;;;;;;5024095;28;4832;-54
2023/07/14 09:24:20;;;;;;;;;;;;;;;;;;5019808;28;4766;-50
2023/07/14 09:26:46;;;;;;;;;;;;;;;;;;5029566;28;5038;-56
2023/07/14 09:29:13;;;;;;;;;;;;;;;;;;5027813;28;4775;-51
2023/07/14 09:31:51;;;;;;;;;;;;;;;;;;5026171;28;5165;-50
2023/07/14 09:34:23;;;;;;;;;;;;;;;;;;5028833;28;4820;-51
2023/07/14 09:36:49;;;;;;;;;;;;;;;;;;5027080;28;1117;-47
2023/07/14 09:39:26;;;;;;;;;;;;;;;;;;5028601;28;4728;-49
2023/07/14 09:41:52;;;;;;;;;;;;;;;;;;5028372;28;4659;-52
2023/07/14 09:44:18;;;;;;;;;;;;;;;;;;5019542;28;4638;-50
2023/07/14 09:46:45;;;;;;;;;;;;;;;;;;5026321;28;4680;-50
2023/07/14 09:49:16;;;;;;;;;;;;;;;;;;5028032;28;4982;-51
2023/07/14 09:51:58;;;;;;;;;;;;;;;;;;5027501;28;1040;-50
2023/07/14 09:54:23;;;;;;;;;;;;;;;;;;5024776;28;4955;-53
2023/07/14 09:56:49;;;;;;;;;;;;;;;;;;5030419;28;5160;-52
2023/07/14 09:59:21;;;;;;;;;;;;;;;;;;5024628;28;5181;-53
2023/07/14 10:01:53;;;;;;;;;;;;;;;;;;5025110;28;4801;-53
2023/07/14 10:04:19;;;;;;;;;;;;;;;;;;5028484;28;4680;-51
2023/07/14 10:06:47;;;;;;;;;;;;;;;;;;5025383;28;1193;-52
2023/07/14 10:09:13;;;;;;;;;;;;;;;;;;5026796;28;4593;-54
2023/07/14 10:11:40;;;;;;;;;;;;;;;;;;5022070;28;5030;-50
2023/07/14 10:14:27;;;;;;;;;;;;;;;;;;5024469;28;5034;-54
2023/07/14 10:16:53;;;;;;;;;;;;;;;;;;5027005;28;4896;-56
2023/07/14 10:19:19;;;;;;;;;;;;;;;;;;5026284;28;5091;-52
2023/07/14 10:21:58;;;;;;;;;;;;;;;;;;5027030;28;4892;-53
2023/07/14 10:24:24;;;;;;;;;;;;;;;;;;5028460;28;5151;-57
2023/07/14 10:26:53;;;;;;;;;;;;;;;;;;5027717;28;4642;-54
2023/07/14 10:29:19;;;;;;;;;;;;;;;;;;5024938;28;5259;-54
2023/07/14 10:31:52;;;;;;;;;;;;;;;;;;5020073;28;5167;-57
2023/07/14 10:34:18;;;;;;;;;;;;;;;;;;5024627;28;5007;-52
2023/07/14 10:36:43;;;;;;;;;;;;;;;;;;5027346;28;1339;-53
2023/07/14 10:39:12;;;;;;;;;;;;;;;;;;5019681;28;5118;-56
2023/07/14 10:41:38;;;;;;;;;;;;;;;;;;5018672;28;5167;-56
2023/07/14 10:44:05;;;;;;;;;;;;;;;;;;5027452;28;5144;-52
2023/07/14 10:46:32;;;;;;;;;;;;;;;;;;5026552;28;5092;-58
2023/07/14 10:49:00;;;;;;;;;;;;;;;;;;5024662;28;1156;-60
2023/07/14 10:51:27;;;;;;;;;;;;;;;;;;5025605;28;5063;-58
2023/07/14 10:53:55;;;;;;;;;;;;;;;;;;5025241;28;4969;-58
2023/07/14 10:56:22;;;;;;;;;;;;;;;;;;5025559;28;5083;-59
2023/07/14 10:58:51;;;;;;;;;;;;;;;;;;5022688;28;4803;-59
2023/07/14 11:01:21;;;;;;;;;;;;;;;;;;5024056;28;5476;-60
2023/07/14 11:03:53;;;;;;;;;;;;;;;;;;5026504;28;1347;-59
2023/07/14 11:06:37;;;;;;;;;;;;;;;;;;5020213;28;5048;-58
2023/07/14 11:09:05;;;;;;;;;;;;;;;;;;5021224;28;5201;-59
2023/07/14 11:11:46;;;;;;;;;;;;;;;;;;5019608;28;5177;-59
2023/07/14 11:14:33;;;;;;;;;;;;;;;;;;5020236;28;5099;-59
2023/07/14 11:17:01;;;;;;;;;;;;;;;;;;5019499;28;5196;-58
2023/07/14 11:19:50;;;;;;;;;;;;;;;;;;5025706;28;4612;-58
2023/07/14 11:22:42;;;;;;;;;;;;;;;;;;5003514;28;5045;-59
2023/07/14 11:25:13;;;;;;;;;;;;;;;;;;5024614;28;5110;-59
2023/07/14 11:27:38;;;;;;;;;;;;;;;;;;5026138;28;3219;-59
2023/07/14 11:30:13;;;;;;;;;;;;;;;;;;5021872;28;4662;-59
2023/07/14 11:32:40;;;;;;;;;;;;;;;;;;5021798;28;4568;-63
2023/07/14 11:35:09;;;;;;;;;;;;;;;;;;5024358;28;4847;-57
2023/07/14 11:37:38;;;;;;;;;;;;;;;;;;5017119;28;4719;-58
2023/07/14 11:40:09;;;;;;;;;;;;;;;;;;5023479;28;2013;-58
2023/07/14 11:42:35;;;;;;;;;;;;;;;;;;5019539;28;5035;-59
2023/07/14 11:45:01;;;;;;;;;;;;;;;;;;5021166;28;4637;-58
2023/07/14 11:47:30;;;;;;;;;;;;;;;;;;5018356;28;4535;-59
2023/07/14 11:49:55;;;;;;;;;;;;;;;;;;5024611;28;4968;-59
2023/07/14 11:52:24;;;;;;;;;;;;;;;;;;5025028;28;5073;-59
2023/07/14 11:54:52;;;;;;;;;;;;;;;;;;5020993;28;1282;-57
2023/07/14 11:57:18;;;;;;;;;;;;;;;;;;5025059;28;5048;-59
2023/07/14 12:00:10;;;;;;;;;;;;;;;;;;5018076;28;5057;-57
2023/07/14 12:02:35;;;;;;;;;;;;;;;;;;5014551;28;4563;-58
2023/07/14 12:05:01;;;;;;;;;;;;;;;;;;5032830;28;5180;-59
2023/07/14 12:07:27;;;;;;;;;;;;;;;;;;5009805;28;5329;-65
2023/07/14 12:09:57;;;;;;;;;;;;;;;;;;5025058;28;3187;-61
2023/07/14 12:12:23;;;;;;;;;;;;;;;;;;5038790;28;4997;-60
2023/07/14 12:14:48;;;;;;;;;;;;;;;;;;5029069;28;5104;-61
2023/07/14 12:17:33;;;;;;;;;;;;;;;;;;5026747;28;5219;-59
2023/07/14 12:19:58;;;;;;;;;;;;;;;;;;5023874;28;4873;-61
2023/07/14 12:22:42;;;;;;;;;;;;;;;;;;5021988;28;5111;-61
2023/07/14 12:25:14;;;;;;;;;;;;;;;;;;5024107;28;4478;-61
2023/07/14 12:27:41;;;;;;;;;;;;;;;;;;5023773;28;1045;-62
2023/07/14 12:30:15;;;;;;;;;;;;;;;;;;5021081;28;5066;-62
2023/07/14 12:32:41;;;;;;;;;;;;;;;;;;5025916;28;5203;-61
2023/07/14 12:35:13;;;;;;;;;;;;;;;;;;5027936;28;4879;-61
2023/07/14 12:37:38;;;;;;;;;;;;;;;;;;5020802;28;4493;-61
2023/07/14 12:40:06;;;;;;;;;;;;;;;;;;4999284;28;3192;-61
2023/07/14 12:42:33;;;;;;;;;;;;;;;;;;5029045;28;5287;-61
2023/07/14 12:44:58;;;;;;;;;;;;;;;;;;5025348;28;4782;-61
2023/07/14 12:47:23;;;;;;;;;;;;;;;;;;5028847;28;5092;-62
2023/07/14 12:49:49;;;;;;;;;;;;;;;;;;5029421;28;5049;-59
2023/07/14 12:52:21;;;;;;;;;;;;;;;;;;5028608;28;5056;-61
2023/07/14 12:54:47;;;;;;;;;;;;;;;;;;5028494;28;2325;-63
2023/07/14 12:57:13;;;;;;;;;;;;;;;;;;5029426;28;5055;-62
2023/07/14 12:59:38;;;;;;;;;;;;;;;;;;5030286;28;5172;-59
2023/07/14 13:02:07;;;;;;;;;;;;;;;;;;5027669;28;5008;-60
2023/07/14 13:04:33;;;;;;;;;;;;;;;;;;5028011;28;5219;-62
2023/07/14 13:07:03;;;;;;;;;;;;;;;;;;5020394;28;3097;-60
2023/07/14 13:09:28;;;;;;;;;;;;;;;;;;5030271;28;4988;-61
2023/07/14 13:11:54;;;;;;;;;;;;;;;;;;5028233;28;4977;-61
2023/07/14 13:14:23;;;;;;;;;;;;;;;;;;5027743;28;5138;-62
2023/07/14 13:16:48;;;;;;;;;;;;;;;;;;5030441;28;5092;-63
2023/07/14 13:19:26;;;;;;;;;;;;;;;;;;5028560;28;4702;-61
2023/07/14 13:21:52;;;;;;;;;;;;;;;;;;5022170;28;5062;-59
2023/07/14 13:24:19;;;;;;;;;;;;;;;;;;5027691;28;4982;-63
2023/07/14 13:26:57;;;;;;;;;;;;;;;;;;5027630;28;5000;-60
2023/07/14 13:29:26;;;;;;;;;;;;;;;;;;5023222;28;4892;-64
2023/07/14 13:32:01;;;;;;;;;;;;;;;;;;5030424;28;5074;-60
2023/07/14 13:34:28;;;;;;;;;;;;;;;;;;5010507;28;4546;-59
2023/07/14 13:36:53;;;;;;;;;;;;;;;;;;5030243;28;1260;-60
2023/07/14 13:39:20;;;;;;;;;;;;;;;;;;5025625;28;4492;-60
2023/07/14 13:41:46;;;;;;;;;;;;;;;;;;5027505;28;5143;-62
2023/07/14 13:44:26;;;;;;;;;;;;;;;;;;5025765;28;4984;-61
2023/07/14 13:46:52;;;;;;;;;;;;;;;;;;5027219;28;4969;-60
2023/07/14 13:49:17;;;;;;;;;;;;;;;;;;5012316;28;5116;-61
2023/07/14 13:51:42;;;;;;;;;;;;;;;;;;5023687;28;3194;-60
2023/07/14 13:54:17;;;;;;;;;;;;;;;;;;5019289;28;4652;-58
2023/07/14 13:56:43;;;;;;;;;;;;;;;;;;5019969;28;5564;-59
2023/07/14 13:59:14;;;;;;;;;;;;;;;;;;5026748;28;4808;-60
2023/07/14 14:01:39;;;;;;;;;;;;;;;;;;5023998;28;4584;-59
2023/07/14 14:04:05;;;;;;;;;;;;;;;;;;5026460;28;3312;-59
2023/07/14 14:06:30;;;;;;;;;;;;;;;;;;5021051;28;4943;-66
2023/07/14 14:08:55;;;;;;;;;;;;;;;;;;5023801;28;5034;-69
2023/07/14 14:11:20;;;;;;;;;;;;;;;;;;5029967;28;5155;-70
2023/07/14 14:13:46;;;;;;;;;;;;;;;;;;5023050;28;4555;-71
2023/07/14 14:16:14;;;;;;;;;;;;;;;;;;5018832;28;5184;-63
2023/07/14 14:18:40;;;;;;;;;;;;;;;;;;5025483;28;3884;-59
2023/07/14 14:21:05;;;;;;;;;;;;;;;;;;5021276;28;5045;-63
2023/07/14 14:23:30;;;;;;;;;;;;;;;;;;5025125;28;5035;-69
2023/07/14 14:25:56;;;;;;;;;;;;;;;;;;5030590;28;5202;-65
2023/07/14 14:28:22;;;;;;;;;;;;;;;;;;5026527;28;4529;-59
2023/07/14 14:30:47;;;;;;;;;;;;;;;;;;5021765;28;3548;-60
2023/07/14 14:33:19;;;;;;;;;;;;;;;;;;5023950;28;5025;-61
2023/07/14 14:35:45;;;;;;;;;;;;;;;;;;5019843;28;4437;-61
2023/07/14 14:38:11;;;;;;;;;;;;;;;;;;5015169;28;4481;-61
2023/07/14 14:40:37;;;;;;;;;;;;;;;;;;5011761;28;4935;-61
2023/07/14 14:43:29;;;;;;;;;;;;;;;;;;5026535;28;1422;-61
2023/07/14 14:45:54;;;;;;;;;;;;;;;;;;5024491;28;5061;-61
2023/07/14 14:48:26;;;;;;;;;;;;;;;;;;5022875;28;5121;-61
2023/07/14 14:50:52;;;;;;;;;;;;;;;;;;5024224;28;5172;-61
2023/07/14 14:53:18;;;;;;;;;;;;;;;;;;5025312;28;5015;-61
2023/07/14 14:55:44;;;;;;;;;;;;;;;;;;5028987;28;5046;-61
2023/07/14 14:58:19;;;;;;;;;;;;;;;;;;5028552;28;4498;-62
2023/07/14 15:01:00;;;;;;;;;;;;;;;;;;5022945;28;2209;-61
2023/07/14 15:03:25;;;;;;;;;;;;;;;;;;5025317;28;4616;-62
2023/07/14 15:05:50;;;;;;;;;;;;;;;;;;5028360;28;4460;-62
2023/07/14 15:08:17;;;;;;;;;;;;;;;;;;5026422;28;4984;-62
2023/07/14 15:10:42;;;;;;;;;;;;;;;;;;5028971;28;4528;-63
2023/07/14 15:13:12;;;;;;;;;;;;;;;;;;5010398;28;4573;-63
2023/07/14 15:15:37;;;;;;;;;;;;;;;;;;5019784;28;1668;-62
2023/07/14 15:18:02;;;;;;;;;;;;;;;;;;5024578;28;5145;-62
2023/07/14 15:20:27;;;;;;;;;;;;;;;;;;5026448;28;5966;-62
2023/07/14 15:22:53;;;;;;;;;;;;;;;;;;5025980;28;5158;-62
2023/07/14 15:25:18;;;;;;;;;;;;;;;;;;5026855;28;5034;-62
2023/07/14 15:27:44;;;;;;;;;;;;;;;;;;5028384;28;1281;-63
2023/07/14 15:30:09;;;;;;;;;;;;;;;;;;5028810;28;4996;-63
2023/07/14 15:32:35;;;;;;;;;;;;;;;;;;5031987;28;5270;-65
2023/07/14 15:35:00;;;;;;;;;;;;;;;;;;5026417;28;4587;-65
2023/07/14 15:37:26;;;;;;;;;;;;;;;;;;5023494;28;4733;-64
2023/07/14 15:39:53;;;;;;;;;;;;;;;;;;5022965;28;3619;-65
2023/07/14 15:42:18;;;;;;;;;;;;;;;;;;5022637;28;5273;-65
2023/07/14 15:44:43;;;;;;;;;;;;;;;;;;5021909;28;5433;-65
2023/07/14 15:47:12;;;;;;;;;;;;;;;;;;5027301;28;4525;-65
2023/07/14 15:49:38;;;;;;;;;;;;;;;;;;5013626;28;4495;-66
2023/07/14 15:52:03;;;;;;;;;;;;;;;;;;5025062;28;1269;-65
2023/07/14 15:54:29;;;;;;;;;;;;;;;;;;5026149;28;5030;-66
2023/07/14 15:56:58;;;;;;;;;;;;;;;;;;5022809;28;5122;-65
2023/07/14 15:59:23;;;;;;;;;;;;;;;;;;5019633;28;5112;-66
2023/07/14 16:01:49;;;;;;;;;;;;;;;;;;5023769;28;4550;-65
2023/07/14 16:04:14;;;;;;;;;;;;;;;;;;5022017;28;4474;-64
2023/07/14 16:06:39;;;;;;;;;;;;;;;;;;5027306;28;3636;-64
2023/07/14 16:09:05;;;;;;;;;;;;;;;;;;5021301;28;5099;-65
2023/07/14 16:11:33;;;;;;;;;;;;;;;;;;5024081;28;5055;-65
2023/07/14 16:13:59;;;;;;;;;;;;;;;;;;5022670;28;4602;-64
2023/07/14 16:16:25;;;;;;;;;;;;;;;;;;5021271;28;4990;-67
2023/07/14 16:18:50;;;;;;;;;;;;;;;;;;5022443;28;3871;-65
2023/07/14 16:21:22;;;;;;;;;;;;;;;;;;5023375;28;4924;-62
2023/07/14 16:23:48;;;;;;;;;;;;;;;;;;5024650;28;5078;-62
2023/07/14 16:26:15;;;;;;;;;;;;;;;;;;5024128;28;4650;-63
2023/07/14 16:28:41;;;;;;;;;;;;;;;;;;5015622;28;4517;-63
2023/07/14 16:31:12;;;;;;;;;;;;;;;;;;5018431;28;5067;-59
2023/07/14 16:33:38;;;;;;;;;;;;;;;;;;5022100;28;3595;-59
2023/07/14 16:36:03;;;;;;;;;;;;;;;;;;5027218;28;4629;-60
2023/07/14 16:38:29;;;;;;;;;;;;;;;;;;5020596;28;4833;-59
2023/07/14 16:40:54;;;;;;;;;;;;;;;;;;5018778;28;5227;-60
2023/07/14 16:43:20;;;;;;;;;;;;;;;;;;5022780;28;5101;-59
2023/07/14 16:45:49;;;;;;;;;;;;;;;;;;5025573;28;2895;-60
2023/07/14 16:48:14;;;;;;;;;;;;;;;;;;5024315;28;4903;-59
2023/07/14 16:50:40;;;;;;;;;;;;;;;;;;5016700;28;5605;-60
2023/07/14 16:53:05;;;;;;;;;;;;;;;;;;5021520;28;5088;-59
2023/07/14 16:55:30;;;;;;;;;;;;;;;;;;5022623;28;4522;-59
2023/07/14 16:57:57;;;;;;;;;;;;;;;;;;5014140;28;4007;-58
2023/07/14 17:00:26;;;;;;;;;;;;;;;;;;5022584;28;4927;-60
2023/07/14 17:03:01;;;;;;;;;;;;;;;;;;5021377;28;4717;-68
2023/07/14 17:05:28;;;;;;;;;;;;;;;;;;5017456;28;4554;-59